createdAt,value
2023-02-02T00:00:57.160Z,6.60
2023-02-02T00:03:47.376Z,6.50
2023-02-02T00:06:37.303Z,6.50
2023-02-02T00:09:29.134Z,6.50
2023-02-02T00:12:19.147Z,6.60
2023-02-02T00:15:12.777Z,6.60
2023-02-02T00:18:02.676Z,6.60
2023-02-02T00:20:53.827Z,6.60
2023-02-02T00:23:43.416Z,6.60
2023-02-02T00:26:36.594Z,6.50
2023-02-02T00:32:09.212Z,6.60
2023-02-02T00:35:00.287Z,6.60
2023-02-02T00:37:50.326Z,6.60
2023-02-02T00:40:39.903Z,6.50
2023-02-02T00:43:29.507Z,6.50
2023-02-02T00:46:20.383Z,6.60
2023-02-02T00:49:12.813Z,6.60
2023-02-02T00:52:02.880Z,6.50
2023-02-02T00:54:52.598Z,6.50
2023-02-02T00:57:44.428Z,6.50
2023-02-02T01:00:34.111Z,6.40
2023-02-02T01:06:03.547Z,6.30
2023-02-02T01:08:53.300Z,6.40
2023-02-02T01:11:42.986Z,6.40
2023-02-02T01:17:12.193Z,6.20
2023-02-02T01:20:03.031Z,6.30
2023-02-02T01:22:53.335Z,6.20
2023-02-02T01:25:42.688Z,6.20
2023-02-02T01:28:32.791Z,6.30
2023-02-02T01:31:23.082Z,6.30
2023-02-02T01:34:13.240Z,6.20
2023-02-02T01:37:03.116Z,6.20
2023-02-02T01:39:52.898Z,6.30
2023-02-02T01:42:42.483Z,6.10
2023-02-02T01:45:32.534Z,6.10
2023-02-02T01:51:03.627Z,6.10
2023-02-02T01:56:46.146Z,6.10
2023-02-02T01:59:36.445Z,6.00
2023-02-02T02:02:26.952Z,5.90
2023-02-02T02:05:18.587Z,5.90
2023-02-02T02:08:10.824Z,5.80
2023-02-02T02:11:00.784Z,5.80
2023-02-02T02:14:08.594Z,5.80
2023-02-02T02:20:15.312Z,5.80
2023-02-02T02:23:44.159Z,5.70
2023-02-02T02:26:45.569Z,5.60
2023-02-02T02:29:47.960Z,5.60
2023-02-02T02:32:44.124Z,5.70
2023-02-02T02:35:35.374Z,5.70
2023-02-02T02:38:28.080Z,5.70
2023-02-02T02:41:19.636Z,5.60
2023-02-02T02:44:11.783Z,5.70
2023-02-02T02:47:02.856Z,5.80
2023-02-02T02:49:52.744Z,6.00
2023-02-02T02:52:42.664Z,5.80
2023-02-02T02:55:33.758Z,5.60
2023-02-02T03:01:05.693Z,5.30
2023-02-02T03:03:57.954Z,5.30
2023-02-02T03:06:49.267Z,5.30
2023-02-02T03:09:40.413Z,5.20
2023-02-02T03:12:30.055Z,5.10
2023-02-02T03:15:20.573Z,5.00
2023-02-02T03:18:10.643Z,4.90
2023-02-02T03:21:00.389Z,4.80
2023-02-02T03:26:34.137Z,4.70
2023-02-02T03:32:02.104Z,4.70
2023-02-02T03:34:52.040Z,4.70
2023-02-02T03:37:41.802Z,4.70
2023-02-02T03:40:31.686Z,4.60
2023-02-02T03:46:06.593Z,4.40
2023-02-02T03:48:56.092Z,4.40
2023-02-02T03:51:45.910Z,4.50
2023-02-02T03:57:58.276Z,4.40
2023-02-02T04:00:48.303Z,4.40
2023-02-02T04:06:16.544Z,4.20
2023-02-02T04:09:06.405Z,4.20
2023-02-02T04:11:56.163Z,4.20
2023-02-02T04:14:48.342Z,4.20
2023-02-02T04:17:38.101Z,4.20
2023-02-02T04:20:29.207Z,4.20
2023-02-02T04:23:19.275Z,4.30
2023-02-02T04:26:09.289Z,4.30
2023-02-02T04:28:59.171Z,4.00
2023-02-02T04:31:49.173Z,4.00
2023-02-02T04:34:39.090Z,4.00
2023-02-02T04:37:31.680Z,3.90
2023-02-02T04:40:23.287Z,3.80
2023-02-02T04:43:12.862Z,3.80
2023-02-02T04:46:05.309Z,3.90
2023-02-02T04:48:55.323Z,3.80
2023-02-02T04:51:45.071Z,3.80
2023-02-02T04:57:12.921Z,3.70
2023-02-02T05:00:02.796Z,3.70
2023-02-02T05:02:52.466Z,3.60
2023-02-02T05:05:42.412Z,3.60
2023-02-02T05:11:12.799Z,3.70
2023-02-02T05:14:02.292Z,3.70
2023-02-02T05:16:53.745Z,3.70
2023-02-02T05:19:43.314Z,3.70
2023-02-02T05:22:33.141Z,3.70
2023-02-02T05:25:23.087Z,3.70
2023-02-02T05:28:13.006Z,3.80
2023-02-02T05:31:06.618Z,3.80
2023-02-02T05:33:56.755Z,3.70
2023-02-02T05:36:46.827Z,3.60
2023-02-02T05:39:36.530Z,3.60
2023-02-02T05:42:26.482Z,3.70
2023-02-02T05:45:16.089Z,3.60
2023-02-02T05:48:09.965Z,3.50
2023-02-02T05:54:01.018Z,3.40
2023-02-02T05:56:51.791Z,3.40
2023-02-02T05:59:41.533Z,3.50
2023-02-02T06:02:31.433Z,3.50
2023-02-02T06:05:21.730Z,3.50
2023-02-02T06:08:12.106Z,3.40
2023-02-02T06:11:01.977Z,3.30
2023-02-02T06:13:51.827Z,3.30
2023-02-02T06:16:41.526Z,3.30
2023-02-02T06:19:34.298Z,3.40
2023-02-02T06:22:24.054Z,3.40
2023-02-02T06:28:00.262Z,3.30
2023-02-02T06:30:50.094Z,3.30
2023-02-02T06:33:41.502Z,3.40
2023-02-02T06:36:33.263Z,3.40
2023-02-02T06:39:53.143Z,3.50
2023-02-02T06:42:24.175Z,3.50
2023-02-02T06:45:14.257Z,3.50
2023-02-02T06:48:06.862Z,3.50
2023-02-02T06:50:58.853Z,3.50
2023-02-02T06:56:40.113Z,3.50
2023-02-02T06:59:30.063Z,3.60
2023-02-02T07:02:19.817Z,3.50
2023-02-02T07:05:10.617Z,3.60
2023-02-02T07:08:00.524Z,3.50
2023-02-02T07:11:11.027Z,3.50
2023-02-02T07:13:48.662Z,3.50
2023-02-02T07:16:38.761Z,3.50
2023-02-02T07:19:28.803Z,3.60
2023-02-02T07:22:19.027Z,3.70
2023-02-02T07:25:10.567Z,3.80
2023-02-02T07:28:00.446Z,3.80
2023-02-02T07:30:50.139Z,3.80
2023-02-02T07:33:43.550Z,3.90
2023-02-02T07:36:35.381Z,3.90
2023-02-02T08:16:32.817Z,4.20
2023-02-02T08:19:22.725Z,4.20
2023-02-02T08:22:30.222Z,4.20
2023-02-02T08:25:20.716Z,4.20
2023-02-02T08:28:11.147Z,4.30
2023-02-02T08:59:34.773Z,4.40
2023-02-02T09:02:24.681Z,5.10
2023-02-02T09:05:14.970Z,5.20
2023-02-02T09:08:04.716Z,5.30
2023-02-02T09:10:54.014Z,5.40
2023-02-02T09:13:53.056Z,5.50
2023-02-02T09:16:43.311Z,5.60
2023-02-02T09:19:33.236Z,5.60
2023-02-02T09:22:23.290Z,5.60
2023-02-02T09:25:14.983Z,5.60
2023-02-02T09:28:05.305Z,5.70
2023-02-02T09:30:55.368Z,5.80
2023-02-02T09:33:45.780Z,5.90
2023-02-02T09:36:37.183Z,5.90
2023-02-02T09:39:29.833Z,6.00
2023-02-02T09:42:32.997Z,6.00
2023-02-02T09:45:25.859Z,6.00
2023-02-02T09:48:20.632Z,6.10
2023-02-02T09:51:12.331Z,6.10
2023-02-02T09:54:05.050Z,6.20
2023-02-02T09:56:57.428Z,6.30
2023-02-02T09:59:49.657Z,6.40
2023-02-02T10:02:44.054Z,6.40
2023-02-02T10:05:36.391Z,6.50
2023-02-02T10:08:34.775Z,6.50
2023-02-02T10:11:29.488Z,6.50
2023-02-02T10:14:21.743Z,6.60
2023-02-02T10:17:17.856Z,6.70
2023-02-02T10:20:12.490Z,6.80
2023-02-02T10:23:07.756Z,6.80
2023-02-02T10:25:59.621Z,7.00
2023-02-02T10:28:58.567Z,7.00
2023-02-02T10:31:53.772Z,7.00
2023-02-02T10:37:38.329Z,7.20
2023-02-02T10:40:36.609Z,7.30
2023-02-02T10:43:48.694Z,7.30
2023-02-02T10:46:39.846Z,7.30
2023-02-02T10:49:32.078Z,7.40
2023-02-02T10:52:23.615Z,7.40
2023-02-02T10:55:16.661Z,7.50
2023-02-02T10:58:11.340Z,7.60
2023-02-02T11:01:03.768Z,7.60
2023-02-02T11:03:55.557Z,7.80
2023-02-02T11:06:51.246Z,7.90
2023-02-02T11:09:42.561Z,8.00
2023-02-02T11:12:34.375Z,8.00
2023-02-02T11:15:29.164Z,8.10
2023-02-02T11:18:29.566Z,8.10
2023-02-02T11:21:23.926Z,8.20
2023-02-02T11:24:20.093Z,8.20
2023-02-02T11:27:13.007Z,8.20
2023-02-02T11:30:05.158Z,8.20
2023-02-02T11:33:01.469Z,8.30
2023-02-02T11:35:56.240Z,8.50
2023-02-02T11:38:46.446Z,8.60
2023-02-02T11:41:36.515Z,8.70
2023-02-02T11:44:28.261Z,8.80
2023-02-02T11:47:35.673Z,8.80
2023-02-02T11:50:24.083Z,8.90
2023-02-02T11:53:51.699Z,8.90
2023-02-02T11:56:41.659Z,8.90
2023-02-02T13:19:36.898Z,10.60
2023-02-02T13:22:48.033Z,10.60
2023-02-02T13:25:40.074Z,10.50
2023-02-02T13:28:35.878Z,10.40
2023-02-02T13:31:37.173Z,10.40
2023-02-02T13:34:31.522Z,10.40
2023-02-02T13:37:24.673Z,10.40
2023-02-02T13:40:33.299Z,10.50
2023-02-02T13:43:42.191Z,10.60
2023-02-02T13:46:33.731Z,10.50
2023-02-02T15:18:08.651Z,10.70
2023-02-02T15:21:02.770Z,10.60
2023-02-02T15:23:53.172Z,10.50
2023-02-02T15:26:43.971Z,10.50
2023-02-02T15:29:39.026Z,10.40
2023-02-02T15:32:29.048Z,10.30
2023-02-02T15:35:21.893Z,10.30
2023-02-02T15:38:14.263Z,10.30
2023-02-02T15:41:08.834Z,10.10
2023-02-02T15:43:58.993Z,10.10
2023-02-02T15:46:50.110Z,10.20
2023-02-02T15:49:41.422Z,10.10
2023-02-02T15:52:35.649Z,10.10
2023-02-02T15:55:27.421Z,10.00
2023-02-02T15:58:36.155Z,9.90
2023-02-02T16:01:26.720Z,9.90
2023-02-02T16:04:18.663Z,9.90
2023-02-02T16:07:10.086Z,9.80
2023-02-02T16:10:06.687Z,9.70
2023-02-02T16:12:56.866Z,9.70
2023-02-02T16:15:48.400Z,9.70
2023-02-02T16:18:38.578Z,9.70
2023-02-02T16:21:29.609Z,9.60
2023-02-02T16:24:24.064Z,9.60
2023-02-02T16:27:15.210Z,9.60
2023-02-02T16:30:10.931Z,9.60
2023-02-02T16:33:00.576Z,9.60
2023-02-02T16:35:52.985Z,9.60
2023-02-02T16:38:43.067Z,9.60
2023-02-02T16:41:34.421Z,9.60
2023-02-02T16:44:43.121Z,9.50
2023-02-02T16:47:40.196Z,9.40
2023-02-02T16:50:33.747Z,9.30
2023-02-02T16:53:24.719Z,9.30
2023-02-02T16:56:20.889Z,9.30
2023-02-02T16:59:17.911Z,9.30
2023-02-02T17:02:13.024Z,9.30
2023-02-02T17:05:18.771Z,9.30
2023-02-02T17:08:08.431Z,9.20
2023-02-02T17:11:09.079Z,9.20
2023-02-02T17:14:01.224Z,9.10
2023-02-02T17:16:51.275Z,9.10
2023-02-02T17:19:41.964Z,9.00
2023-02-02T17:22:32.767Z,8.90
2023-02-02T17:25:24.569Z,8.90
2023-02-02T17:28:19.789Z,8.90
2023-02-02T17:31:10.294Z,8.90
2023-02-02T17:34:00.413Z,8.80
2023-02-02T17:36:52.747Z,8.80
2023-02-02T17:43:18.397Z,8.80
2023-02-02T17:46:11.541Z,8.80
2023-02-02T17:49:05.899Z,8.70
2023-02-02T17:51:55.846Z,8.80
2023-02-02T17:54:45.706Z,8.70
2023-02-02T17:57:35.640Z,8.70
2023-02-02T18:00:26.706Z,8.70
2023-02-02T18:03:18.985Z,8.70
2023-02-02T18:06:34.237Z,8.70
2023-02-02T18:09:05.532Z,8.60
2023-02-02T18:11:55.444Z,8.60
2023-02-02T18:14:45.349Z,8.60
2023-02-02T18:17:35.331Z,8.50
2023-02-02T18:20:24.962Z,8.60
2023-02-02T18:23:15.309Z,8.50
2023-02-02T18:26:17.072Z,8.50
2023-02-02T18:29:06.714Z,8.40
2023-02-02T18:31:59.077Z,8.40
2023-02-02T18:34:50.990Z,8.50
2023-02-02T18:37:40.763Z,8.60
2023-02-02T18:40:30.706Z,8.50
2023-02-02T18:43:20.652Z,8.50
2023-02-02T18:46:13.951Z,8.50
2023-02-02T18:49:04.090Z,8.40
2023-02-02T18:51:53.911Z,8.30
2023-02-02T18:54:48.326Z,8.30
2023-02-02T18:57:38.273Z,8.30
2023-02-02T19:00:28.341Z,8.20
2023-02-02T19:03:18.251Z,8.20
2023-02-02T19:06:27.108Z,8.20
2023-02-02T19:09:17.526Z,8.10
2023-02-02T19:12:14.925Z,8.10
2023-02-02T19:15:08.209Z,8.00
2023-02-02T19:17:59.417Z,7.90
2023-02-02T19:20:50.012Z,7.80
2023-02-02T19:23:45.700Z,7.80
2023-02-02T19:26:37.146Z,7.80
2023-02-02T19:29:28.229Z,7.90
2023-02-02T19:32:20.795Z,7.90
2023-02-02T19:35:15.111Z,7.80
2023-02-02T19:38:04.993Z,7.80
2023-02-02T19:40:54.491Z,7.80
2023-02-02T19:44:06.762Z,7.80
2023-02-02T19:50:48.417Z,7.80
2023-02-02T19:54:22.681Z,7.80
2023-02-02T19:57:30.993Z,7.80
2023-02-02T20:00:30.487Z,7.70
2023-02-02T20:03:24.296Z,7.70
2023-02-02T20:06:15.653Z,7.60
2023-02-02T20:09:16.898Z,7.50
2023-02-02T20:12:13.398Z,7.50
2023-02-02T20:15:04.038Z,7.50
2023-02-02T20:17:56.205Z,7.40
2023-02-02T20:20:47.714Z,7.50
2023-02-02T20:23:40.118Z,7.50
2023-02-02T20:26:31.068Z,7.50
2023-02-02T20:29:25.868Z,7.60
2023-02-02T20:32:22.043Z,7.60
2023-02-02T20:35:19.120Z,7.60
2023-02-02T20:38:17.033Z,7.70
2023-02-02T20:41:06.993Z,7.80
2023-02-02T20:54:20.965Z,7.70
2023-02-02T20:57:10.743Z,7.70
2023-02-02T21:00:00.817Z,7.70
2023-02-02T21:02:52.031Z,7.70
2023-02-02T21:05:42.324Z,7.70
2023-02-02T21:08:37.254Z,7.60
2023-02-02T21:11:28.480Z,7.60
2023-02-02T21:14:18.526Z,7.50
2023-02-02T21:17:15.371Z,7.60
2023-02-02T21:20:00.135Z,7.60
2023-02-02T21:22:52.157Z,7.50
2023-02-02T21:25:41.990Z,7.50
2023-02-02T21:28:32.843Z,7.50
2023-02-02T21:31:23.151Z,7.60
2023-02-02T21:34:14.667Z,7.40
